Terminal Aerodrome Forecast
Issued by NWS

Home | Current Version | Previous Version | Text Only | Print | Product List | Glossary On
Versions: 1 2 3 4 5 6 7 8 9 10 11 12 13 14 15 16 17 18 19 20 21 22 23 24 25
062
FTUS43 KILX 250833 AAC
TAFBMI
TAF AMD
KBMI 250833Z 2509/2606 20009KT P6SM SCT060
     FM251000 33005KT 4SM BR VCSH SCT010 BKN050
     FM251300 36008KT P6SM SCT025 BKN250
     FM251500 36008KT P6SM SCT040=

USA.gov is the U.S. government's official web portal to all federal, state and local government web resources and services.